Time;durP1;ratioP1;P1;durP2;ratioP2;P2;SDS_P1;SDS_P2;PMS_P1;PMS_P2;Temp;Humidity;BMP_temperature;BMP_pressure;BME280_temperature;BME280_humidity;BME280_pressure;Samples;Min_cycle;Max_cycle;Signal;HPM_P1;HPM_P2
2022/08/03 00:01:27;;;;;;;;;;;;;;;18.27;79.84;95245.69;5094012;28;1027;-48
2022/08/03 00:03:53;;;;;;;;;;;;;;;18.25;79.85;95239.66;5093908;28;1033;-48
2022/08/03 00:06:19;;;;;;;;;;;;;;;18.25;79.39;95244.22;5094106;28;992;-48
2022/08/03 00:08:45;;;;;;;;;;;;;;;18.30;79.24;95252.53;5093774;28;1984;-48
2022/08/03 00:11:11;;;;;;;;;;;;;;;18.47;78.48;95253.81;5093991;28;956;-48
2022/08/03 00:13:37;;;;;;;;;;;;;;;18.38;78.32;95243.38;5093808;28;1010;-48
2022/08/03 00:16:03;;;;;;;;;;;;;;;18.00;79.42;95242.09;5093697;28;1060;-48
2022/08/03 00:18:29;;;;;;;;;;;;;;;18.03;79.86;95247.09;5094060;28;1117;-48
2022/08/03 00:20:55;;;;;;;;;;;;;;;18.12;79.61;95235.03;5093890;28;992;-48
2022/08/03 00:23:21;;;;;;;;;;;;;;;18.21;78.75;95246.53;5093730;28;1025;-48
2022/08/03 00:25:47;;;;;;;;;;;;;;;18.14;79.82;95242.97;5093611;28;1009;-48
2022/08/03 00:28:13;;;;;;;;;;;;;;;18.14;79.43;95243.78;5093554;28;1905;-48
2022/08/03 00:30:39;;;;;;;;;;;;;;;18.01;79.50;95232.13;5093463;28;1028;-48
2022/08/03 00:33:05;;;;;;;;;;;;;;;17.75;80.00;95237.22;5093601;28;1828;-48
2022/08/03 00:35:31;;;;;;;;;;;;;;;17.61;80.46;95230.13;5093625;28;948;-48
2022/08/03 00:37:57;;;;;;;;;;;;;;;17.71;80.57;95235.13;5093724;28;1032;-48
2022/08/03 00:40:23;;;;;;;;;;;;;;;17.59;81.40;95228.66;5093367;28;1111;-48
2022/08/03 00:42:52;;;;;;;;;;;;;;;17.60;80.29;95233.84;5091760;28;1153;-48
2022/08/03 00:45:29;;;;;;;;;;;;;;;17.62;80.17;95234.47;5072841;28;980;-48
2022/08/03 00:47:55;;;;;;;;;;;;;;;17.80;79.31;95239.31;5073243;28;1496;-48
2022/08/03 00:50:22;;;;;;;;;;;;;;;17.82;79.03;95244.53;5072924;28;1913;-48
2022/08/03 00:52:49;;;;;;;;;;;;;;;17.83;79.61;95235.38;5073019;28;1108;-48
2022/08/03 00:55:15;;;;;;;;;;;;;;;17.70;80.06;95236.16;5073527;28;1028;-48
2022/08/03 00:57:42;;;;;;;;;;;;;;;17.65;80.30;95234.06;5073123;28;1969;-48
2022/08/03 01:00:09;;;;;;;;;;;;;;;17.64;80.80;95231.56;5073148;28;977;-48
2022/08/03 01:02:36;;;;;;;;;;;;;;;17.46;80.89;95238.38;5073369;28;963;-48
2022/08/03 01:05:02;;;;;;;;;;;;;;;17.45;81.66;95241.28;5073080;28;1029;-48
2022/08/03 01:07:40;;;;;;;;;;;;;;;17.43;81.47;95241.47;5073178;28;970;-48
2022/08/03 01:10:14;;;;;;;;;;;;;;;17.49;81.27;95242.53;5072772;28;1979;-48
2022/08/03 01:12:44;;;;;;;;;;;;;;;17.72;80.13;95242.22;5073355;28;966;-48
2022/08/03 01:15:34;;;;;;;;;;;;;;;17.57;80.57;95247.78;5072939;28;1037;-48
2022/08/03 01:18:06;;;;;;;;;;;;;;;17.53;80.51;95246.53;5073023;28;1091;-48
2022/08/03 01:20:34;;;;;;;;;;;;;;;17.49;80.61;95258.75;5072833;28;973;-48
2022/08/03 01:23:19;;;;;;;;;;;;;;;17.42;81.11;95247.09;5072901;28;1028;-48
2022/08/03 01:26:04;;;;;;;;;;;;;;;17.32;81.38;95253.69;5072712;28;1025;-48
2022/08/03 01:28:49;;;;;;;;;;;;;;;17.27;81.16;95253.47;5072918;28;2006;-48
2022/08/03 01:31:20;;;;;;;;;;;;;;;17.13;81.38;95249.00;5072527;28;970;-48
2022/08/03 01:33:50;;;;;;;;;;;;;;;17.16;82.22;95254.03;5073076;28;1041;-48
2022/08/03 01:36:18;;;;;;;;;;;;;;;17.02;82.39;95244.19;5072761;28;966;-48
2022/08/03 01:38:48;;;;;;;;;;;;;;;16.88;82.71;95246.78;5072738;28;1096;-48
2022/08/03 01:41:19;;;;;;;;;;;;;;;16.97;82.89;95245.59;5072578;28;1056;-48
2022/08/03 01:43:48;;;;;;;;;;;;;;;17.02;82.84;95239.63;5082129;28;1198;-48
2022/08/03 01:46:16;;;;;;;;;;;;;;;17.03;82.38;95252.06;5092897;28;965;-48
2022/08/03 01:48:43;;;;;;;;;;;;;;;16.99;81.64;95250.81;5092802;28;1992;-48
2022/08/03 01:51:10;;;;;;;;;;;;;;;16.78;82.93;95240.88;5092735;28;1060;-48
2022/08/03 01:53:37;;;;;;;;;;;;;;;16.84;82.69;95236.59;5092775;28;1076;-48
2022/08/03 01:56:04;;;;;;;;;;;;;;;16.96;82.32;95238.53;5093284;28;966;-48
2022/08/03 01:58:31;;;;;;;;;;;;;;;16.96;82.34;95235.84;5096485;28;1024;-48
2022/08/03 02:00:59;;;;;;;;;;;;;;;16.74;82.86;95236.91;5096276;28;1088;-48
2022/08/03 02:03:27;;;;;;;;;;;;;;;16.83;83.07;95251.09;5096307;28;1072;-48
2022/08/03 02:05:54;;;;;;;;;;;;;;;16.76;82.64;95248.34;5096345;28;997;-48
2022/08/03 02:08:22;;;;;;;;;;;;;;;16.77;83.13;95250.84;5096510;28;1906;-47
2022/08/03 02:10:50;;;;;;;;;;;;;;;16.59;83.40;95245.94;5096146;28;969;-47
2022/08/03 02:13:18;;;;;;;;;;;;;;;16.82;82.41;95244.88;5096153;28;1879;-48
2022/08/03 02:15:45;;;;;;;;;;;;;;;16.75;83.05;95249.34;5096187;28;1030;-48
2022/08/03 02:18:12;;;;;;;;;;;;;;;16.88;81.77;95246.78;5096229;28;984;-48
2022/08/03 02:20:38;;;;;;;;;;;;;;;16.88;82.04;95244.09;5096110;28;969;-48
2022/08/03 02:23:06;;;;;;;;;;;;;;;16.57;82.63;95236.38;5095977;28;1076;-48
2022/08/03 02:25:33;;;;;;;;;;;;;;;16.35;84.15;95233.72;5095992;28;1057;-48
2022/08/03 02:28:09;;;;;;;;;;;;;;;16.53;83.02;95241.31;5095770;28;1001;-48
2022/08/03 02:30:40;;;;;;;;;;;;;;;16.46;83.32;95235.03;5095979;28;1906;-48
2022/08/03 02:33:08;;;;;;;;;;;;;;;16.35;83.66;95236.41;5095753;28;1024;-48
2022/08/03 02:35:34;;;;;;;;;;;;;;;16.41;83.79;95242.91;5095851;28;1025;-47
2022/08/03 02:38:02;;;;;;;;;;;;;;;16.49;83.74;95248.16;5095518;28;1079;-48
2022/08/03 02:40:30;;;;;;;;;;;;;;;16.53;84.00;95252.13;5095964;28;1040;-47
2022/08/03 02:42:58;;;;;;;;;;;;;;;16.59;83.50;95248.63;5093080;28;1158;-48
2022/08/03 02:45:25;;;;;;;;;;;;;;;16.56;83.82;95248.19;5075296;28;1087;-48
2022/08/03 02:47:54;;;;;;;;;;;;;;;16.51;83.70;95239.84;5075278;28;1025;-48
2022/08/03 02:50:20;;;;;;;;;;;;;;;16.56;83.56;95246.34;5075188;28;1906;-48
2022/08/03 02:52:47;;;;;;;;;;;;;;;16.39;83.08;95250.34;5064925;28;1086;-48
2022/08/03 02:55:14;;;;;;;;;;;;;;;16.24;83.41;95242.34;5075438;28;1003;-48
2022/08/03 02:57:42;;;;;;;;;;;;;;;16.08;84.66;95239.91;5075219;28;1029;-48
2022/08/03 03:00:08;;;;;;;;;;;;;;;16.11;84.46;95240.34;5075200;28;1084;-48
2022/08/03 03:02:35;;;;;;;;;;;;;;;16.38;83.59;95248.69;5075016;28;1026;-47
2022/08/03 03:05:01;;;;;;;;;;;;;;;16.44;83.13;95242.50;5075070;28;970;-48
2022/08/03 03:07:27;;;;;;;;;;;;;;;16.39;83.04;95240.41;5074729;28;1017;-48
2022/08/03 03:09:53;;;;;;;;;;;;;;;16.37;83.70;95238.91;5075100;28;1906;-48
2022/08/03 03:12:20;;;;;;;;;;;;;;;16.43;83.62;95230.03;5074810;28;1025;-48
2022/08/03 03:14:46;;;;;;;;;;;;;;;16.44;83.32;95231.69;5074812;28;1044;-48
2022/08/03 03:17:13;;;;;;;;;;;;;;;16.40;83.45;95233.13;5074422;28;1092;-48
2022/08/03 03:19:40;;;;;;;;;;;;;;;16.14;84.44;95242.66;5074819;28;970;-48
2022/08/03 03:22:07;;;;;;;;;;;;;;;15.95;85.15;95243.28;5074363;28;1025;-48
2022/08/03 03:24:34;;;;;;;;;;;;;;;16.12;84.96;95252.78;5074843;28;1036;-48
2022/08/03 03:27:01;;;;;;;;;;;;;;;16.48;82.78;95249.16;5074609;28;972;-48
2022/08/03 03:29:27;;;;;;;;;;;;;;;16.51;83.07;95253.34;5074474;28;1914;-47
2022/08/03 03:31:53;;;;;;;;;;;;;;;16.46;83.44;95251.22;5074489;28;980;-47
2022/08/03 03:34:19;;;;;;;;;;;;;;;16.44;83.50;95252.47;5074409;28;1019;-48
2022/08/03 03:36:45;;;;;;;;;;;;;;;16.48;84.10;95259.97;5074779;28;1021;-48
2022/08/03 03:39:11;;;;;;;;;;;;;;;16.38;83.77;95259.47;5074518;28;976;-48
2022/08/03 03:41:38;;;;;;;;;;;;;;;16.16;83.88;95261.34;5074438;28;1000;-48
2022/08/03 03:44:05;;;;;;;;;;;;;;;16.08;84.12;95261.47;5086218;28;1206;-48
2022/08/03 03:46:31;;;;;;;;;;;;;;;16.09;84.72;95257.75;5094509;28;974;-48
2022/08/03 03:48:57;;;;;;;;;;;;;;;16.04;85.39;95258.31;5094232;28;1906;-48
2022/08/03 03:51:23;;;;;;;;;;;;;;;16.10;84.88;95262.94;5094274;28;1075;-48
2022/08/03 03:53:56;;;;;;;;;;;;;;;16.24;84.56;95263.06;5094024;28;1436;-47
2022/08/03 03:56:22;;;;;;;;;;;;;;;16.48;83.34;95268.06;5094459;28;984;-48
2022/08/03 03:58:48;;;;;;;;;;;;;;;16.53;83.87;95279.09;5094126;28;974;-48
2022/08/03 04:01:14;;;;;;;;;;;;;;;16.65;83.62;95276.72;5094222;28;1022;-47
2022/08/03 04:03:40;;;;;;;;;;;;;;;16.66;83.57;95277.56;5093951;28;1117;-47
2022/08/03 04:11:46;;;;;;;;;;;;;;;16.82;83.07;95279.13;5070500;28;1206;-48
2022/08/03 04:14:15;;;;;;;;;;;;;;;16.77;84.07;95279.72;5093652;28;2096;-47
2022/08/03 04:16:43;;;;;;;;;;;;;;;16.84;83.46;95290.59;5094287;28;1013;-48
2022/08/03 04:19:27;;;;;;;;;;;;;;;16.96;83.29;95287.16;5093499;28;946;-48
2022/08/03 04:21:54;;;;;;;;;;;;;;;17.14;82.85;95283.09;5094026;28;958;-48
2022/08/03 04:24:22;;;;;;;;;;;;;;;17.29;83.74;95291.91;5093666;28;957;-48
2022/08/03 04:26:49;;;;;;;;;;;;;;;17.54;82.98;95291.41;5093817;28;1033;-47
2022/08/03 04:29:17;;;;;;;;;;;;;;;17.75;82.17;95304.81;5093556;28;1920;-47
2022/08/03 04:31:44;;;;;;;;;;;;;;;17.92;82.56;95302.63;5093818;28;1062;-48
2022/08/03 04:34:11;;;;;;;;;;;;;;;18.02;81.39;95304.97;5093372;28;1087;-48
2022/08/03 04:36:43;;;;;;;;;;;;;;;18.13;80.76;95312.47;5093884;28;984;-48
2022/08/03 04:39:15;;;;;;;;;;;;;;;18.32;80.83;95318.13;5093344;28;1127;-48
2022/08/03 04:41:42;;;;;;;;;;;;;;;18.40;80.07;95312.53;5093593;28;1025;-48
2022/08/03 04:44:09;;;;;;;;;;;;;;;18.56;78.71;95318.59;5080799;28;1210;-48
2022/08/03 04:46:37;;;;;;;;;;;;;;;18.67;77.32;95317.97;5073499;28;955;-48
2022/08/03 04:49:04;;;;;;;;;;;;;;;18.78;77.39;95330.06;5072939;28;1996;-48
2022/08/03 04:51:30;;;;;;;;;;;;;;;18.89;76.31;95321.34;5073122;28;1247;-48
2022/08/03 04:53:56;;;;;;;;;;;;;;;19.13;76.71;95325.28;5073000;28;1095;-48
2022/08/03 04:56:22;;;;;;;;;;;;;;;19.27;74.56;95315.25;5073358;28;951;-48
2022/08/03 04:58:48;;;;;;;;;;;;;;;19.30;74.91;95312.97;5073242;28;1038;-48
2022/08/03 05:01:15;;;;;;;;;;;;;;;19.37;72.93;95323.81;5073083;28;1017;-48
2022/08/03 05:03:41;;;;;;;;;;;;;;;19.53;74.21;95321.69;5072931;28;997;-47
2022/08/03 05:06:07;;;;;;;;;;;;;;;19.53;72.90;95319.78;5073085;28;1042;-48
2022/08/03 05:08:33;;;;;;;;;;;;;;;19.66;74.69;95316.22;5072831;28;1909;-48
2022/08/03 05:10:59;;;;;;;;;;;;;;;19.80;73.69;95317.84;5073324;28;992;-48
2022/08/03 05:13:25;;;;;;;;;;;;;;;19.92;72.21;95315.31;5072769;28;1092;-48
2022/08/03 05:15:51;;;;;;;;;;;;;;;20.18;71.14;95313.50;5055214;28;1025;-48
2022/08/03 05:18:17;;;;;;;;;;;;;;;20.37;71.05;95312.56;5072766;28;1029;-48
2022/08/03 05:20:43;;;;;;;;;;;;;;;20.40;71.10;95316.72;5073045;28;1057;-48
2022/08/03 05:23:09;;;;;;;;;;;;;;;20.46;71.93;95321.28;5072726;28;1039;-48
2022/08/03 05:25:35;;;;;;;;;;;;;;;20.50;70.40;95321.69;5072902;28;1013;-48
2022/08/03 05:28:01;;;;;;;;;;;;;;;20.60;69.11;95322.06;5073022;28;974;-48
2022/08/03 05:30:27;;;;;;;;;;;;;;;20.78;70.63;95324.03;5055135;28;1979;-48
2022/08/03 05:32:53;;;;;;;;;;;;;;;20.82;69.24;95326.06;5076638;28;1122;-48
2022/08/03 05:35:19;;;;;;;;;;;;;;;20.98;68.85;95329.28;5076519;28;1024;-48
2022/08/03 05:37:45;;;;;;;;;;;;;;;21.32;67.78;95330.66;5076581;28;1096;-48
2022/08/03 05:40:11;;;;;;;;;;;;;;;21.58;64.13;95331.50;5076236;28;1029;-48
2022/08/03 05:42:37;;;;;;;;;;;;;;;21.58;67.44;95334.19;5076558;28;1863;-48
2022/08/03 05:45:13;;;;;;;;;;;;;;;21.62;65.30;95338.97;5076375;28;966;-52
2022/08/03 05:47:40;;;;;;;;;;;;;;;22.02;63.99;95338.53;5076631;28;1119;-48
2022/08/03 05:50:06;;;;;;;;;;;;;;;22.38;63.18;95333.25;5076036;28;1914;-49
2022/08/03 05:52:32;;;;;;;;;;;;;;;22.57;63.00;95334.03;5076149;28;1108;-48
2022/08/03 05:54:58;;;;;;;;;;;;;;;22.68;62.25;95340.59;5076403;28;970;-48
2022/08/03 05:57:25;;;;;;;;;;;;;;;22.98;61.53;95335.13;5076268;28;1072;-48
2022/08/03 05:59:51;;;;;;;;;;;;;;;22.93;62.73;95340.44;5075997;28;926;-48
2022/08/03 06:02:17;;;;;;;;;;;;;;;22.63;61.99;95335.00;5076220;28;978;-48
2022/08/03 06:04:43;;;;;;;;;;;;;;;22.40;62.58;95332.00;5075924;28;1111;-48
2022/08/03 06:07:08;;;;;;;;;;;;;;;22.25;63.58;95338.84;5076031;28;961;-47
2022/08/03 06:09:34;;;;;;;;;;;;;;;22.29;65.69;95343.66;5075856;28;1910;-48
2022/08/03 06:12:00;;;;;;;;;;;;;;;22.41;65.99;95344.53;5076310;28;1008;-48
2022/08/03 06:14:26;;;;;;;;;;;;;;;22.53;65.47;95346.47;5075863;28;1039;-49
2022/08/03 06:16:52;;;;;;;;;;;;;;;22.54;63.83;95346.25;5076088;28;980;-49
2022/08/03 06:19:19;;;;;;;;;;;;;;;22.64;65.53;95342.97;5075707;28;1043;-49
2022/08/03 06:21:45;;;;;;;;;;;;;;;22.87;63.40;95350.38;5075863;28;1049;-48
2022/08/03 06:24:11;;;;;;;;;;;;;;;22.94;64.02;95342.94;5075797;28;986;-48
2022/08/03 06:26:36;;;;;;;;;;;;;;;22.88;61.76;95343.00;5075881;28;1052;-48
2022/08/03 06:29:03;;;;;;;;;;;;;;;22.91;63.67;95343.38;5075613;28;1983;-49
2022/08/03 06:31:29;;;;;;;;;;;;;;;22.97;62.76;95347.91;5075612;28;1104;-49
2022/08/03 06:33:54;;;;;;;;;;;;;;;23.23;63.75;95350.47;5075620;28;1064;-49
2022/08/03 06:36:20;;;;;;;;;;;;;;;23.39;63.97;95344.28;5075394;28;942;-49
2022/08/03 06:38:46;;;;;;;;;;;;;;;23.50;64.11;95354.38;5075399;28;1967;-49
2022/08/03 06:41:12;;;;;;;;;;;;;;;23.55;62.54;95353.69;5075423;28;957;-49
2022/08/03 06:43:39;;;;;;;;;;;;;;;23.62;62.29;95353.56;5083469;28;1221;-49
2022/08/03 06:46:05;;;;;;;;;;;;;;;23.88;62.33;95338.59;5095383;28;1876;-49
2022/08/03 06:48:31;;;;;;;;;;;;;;;23.93;61.64;95345.00;5095626;28;1996;-49
2022/08/03 06:50:58;;;;;;;;;;;;;;;24.02;60.68;95341.91;5095292;28;1025;-48
2022/08/03 06:53:24;;;;;;;;;;;;;;;24.07;59.12;95356.50;5095231;28;1259;-49
2022/08/03 06:55:50;;;;;;;;;;;;;;;24.33;58.86;95343.38;5095608;28;1044;-49
2022/08/03 06:58:16;;;;;;;;;;;;;;;24.57;58.29;95341.41;5095467;28;974;-49
2022/08/03 07:00:42;;;;;;;;;;;;;;;24.77;58.38;95337.41;5095199;28;1041;-49
2022/08/03 07:03:08;;;;;;;;;;;;;;;24.99;59.07;95341.06;5095312;28;1047;-49
2022/08/03 07:05:34;;;;;;;;;;;;;;;25.10;57.59;95336.63;5094963;28;1196;-48
2022/08/03 07:08:01;;;;;;;;;;;;;;;25.20;57.51;95341.41;5095490;28;950;-48
2022/08/03 07:10:27;;;;;;;;;;;;;;;25.32;57.26;95344.91;5095113;28;1914;-49
2022/08/03 07:12:53;;;;;;;;;;;;;;;25.38;56.06;95343.09;5095112;28;1041;-49
2022/08/03 07:15:19;;;;;;;;;;;;;;;25.40;57.34;95336.31;5094937;28;1044;-49
2022/08/03 07:17:45;;;;;;;;;;;;;;;25.55;56.52;95343.91;5095030;28;1053;-49
2022/08/03 07:20:12;;;;;;;;;;;;;;;25.60;57.16;95338.50;5094684;28;1967;-49
2022/08/03 07:22:38;;;;;;;;;;;;;;;25.75;57.47;95345.31;5095170;28;1003;-48
2022/08/03 07:25:04;;;;;;;;;;;;;;;25.79;56.70;95343.72;5094855;28;1037;-49
2022/08/03 07:27:30;;;;;;;;;;;;;;;25.87;56.52;95335.06;5094994;28;982;-49
2022/08/03 07:29:58;;;;;;;;;;;;;;;25.93;56.60;95338.72;5094625;28;1898;-49
2022/08/03 07:32:25;;;;;;;;;;;;;;;25.88;56.89;95334.81;5094619;28;978;-49
2022/08/03 07:34:51;;;;;;;;;;;;;;;25.93;56.14;95334.06;5094677;28;1035;-49
2022/08/03 07:37:17;;;;;;;;;;;;;;;26.02;57.85;95334.47;5094390;28;1081;-49
2022/08/03 07:39:43;;;;;;;;;;;;;;;26.07;56.40;95335.38;5094771;28;1001;-49
2022/08/03 07:42:09;;;;;;;;;;;;;;;26.03;55.54;95342.44;5094448;28;978;-49
2022/08/03 07:44:35;;;;;;;;;;;;;;;26.13;54.37;95343.66;5077976;28;1969;-49
2022/08/03 07:47:01;;;;;;;;;;;;;;;26.39;56.42;95345.63;5073997;28;1053;-49
2022/08/03 07:49:27;;;;;;;;;;;;;;;26.47;55.70;95339.69;5074067;28;1914;-49
2022/08/03 07:54:38;;;;;;;;;;;;;;;26.37;52.47;95344.22;5073334;28;1205;-49
2022/08/03 07:57:04;;;;;;;;;;;;;;;26.46;53.65;95339.94;5073861;28;1023;-49
2022/08/03 07:59:30;;;;;;;;;;;;;;;26.59;53.95;95336.81;5074061;28;995;-49
2022/08/03 08:01:56;;;;;;;;;;;;;;;26.70;53.03;95337.78;5073739;28;1064;-49
2022/08/03 08:04:22;;;;;;;;;;;;;;;26.77;52.42;95334.81;5074001;28;1048;-49
2022/08/03 08:06:48;;;;;;;;;;;;;;;26.66;52.93;95336.63;5073864;28;1016;-49
2022/08/03 08:09:14;;;;;;;;;;;;;;;26.80;52.78;95337.88;5073837;28;1910;-49
2022/08/03 08:11:40;;;;;;;;;;;;;;;26.95;51.69;95330.88;5073573;28;2016;-49
2022/08/03 08:14:06;;;;;;;;;;;;;;;27.05;51.50;95340.03;5073620;28;1017;-49
2022/08/03 08:16:32;;;;;;;;;;;;;;;27.21;51.54;95338.25;5073522;28;1100;-49
2022/08/03 08:18:58;;;;;;;;;;;;;;;27.36;53.51;95340.34;5073538;28;1026;-49
2022/08/03 08:21:24;;;;;;;;;;;;;;;27.54;49.70;95335.50;5073592;28;1116;-49
2022/08/03 08:23:50;;;;;;;;;;;;;;;27.67;49.66;95332.31;5073575;28;1062;-49
2022/08/03 08:26:16;;;;;;;;;;;;;;;27.73;48.53;95336.75;5073421;28;969;-49
2022/08/03 08:28:42;;;;;;;;;;;;;;;27.78;48.86;95334.03;5073518;28;1909;-49
2022/08/03 08:31:08;;;;;;;;;;;;;;;27.78;46.92;95325.78;5073233;28;1072;-49
2022/08/03 08:33:34;;;;;;;;;;;;;;;27.92;48.20;95331.66;5073403;28;1107;-49
2022/08/03 08:36:00;;;;;;;;;;;;;;;28.07;47.57;95325.41;5073689;28;958;-50
2022/08/03 08:38:27;;;;;;;;;;;;;;;28.24;48.14;95320.53;5073161;28;1020;-50
2022/08/03 08:40:55;;;;;;;;;;;;;;;28.34;45.62;95327.19;5073308;28;1052;-49
2022/08/03 08:43:21;;;;;;;;;;;;;;;28.36;45.17;95330.50;5079093;28;1151;-49
2022/08/03 08:45:49;;;;;;;;;;;;;;;28.44;45.98;95321.75;5093489;28;1025;-49
2022/08/03 08:48:20;;;;;;;;;;;;;;;28.46;46.08;95314.03;5093142;28;1028;-50
2022/08/03 08:50:47;;;;;;;;;;;;;;;28.55;45.59;95315.22;5093601;28;1906;-49
2022/08/03 08:53:14;;;;;;;;;;;;;;;28.71;46.35;95313.31;5093104;28;1238;-50
2022/08/03 08:55:40;;;;;;;;;;;;;;;28.72;46.73;95314.13;5093542;28;1032;-49
2022/08/03 08:58:08;;;;;;;;;;;;;;;28.71;45.38;95313.31;5093219;28;966;-49
2022/08/03 09:00:34;;;;;;;;;;;;;;;28.74;45.83;95309.19;5093335;28;1055;-49
2022/08/03 09:03:00;;;;;;;;;;;;;;;28.80;44.57;95305.34;5093217;28;1033;-49
2022/08/03 09:05:26;;;;;;;;;;;;;;;28.84;46.48;95308.38;5094684;28;1075;-49
2022/08/03 09:07:52;;;;;;;;;;;;;;;28.89;45.27;95309.19;5097318;28;1032;-50
2022/08/03 09:10:20;;;;;;;;;;;;;;;28.96;44.97;95307.00;5097274;28;1878;-49
2022/08/03 09:12:49;;;;;;;;;;;;;;;29.00;45.14;95307.28;5097193;28;1235;-49
2022/08/03 09:15:25;;;;;;;;;;;;;;;29.00;41.92;95301.78;5097250;28;1029;-49
2022/08/03 09:17:52;;;;;;;;;;;;;;;29.03;43.11;95298.50;5097413;28;1056;-50
2022/08/03 09:20:19;;;;;;;;;;;;;;;29.04;43.61;95300.13;5097175;28;1120;-49
2022/08/03 09:23:00;;;;;;;;;;;;;;;29.06;43.08;95299.88;5097186;28;980;-50
2022/08/03 09:25:36;;;;;;;;;;;;;;;29.07;43.71;95296.84;5097035;28;1041;-49
2022/08/03 09:28:16;;;;;;;;;;;;;;;29.04;44.06;95302.06;5096857;28;1048;-50
2022/08/03 09:30:43;;;;;;;;;;;;;;;29.10;43.75;95300.97;5097398;28;1978;-49
2022/08/03 09:33:15;;;;;;;;;;;;;;;29.11;42.11;95302.63;5096908;28;1116;-49
2022/08/03 09:35:42;;;;;;;;;;;;;;;29.12;44.02;95299.59;5097106;28;958;-49
2022/08/03 09:38:15;;;;;;;;;;;;;;;29.09;40.97;95307.59;5096689;28;1038;-50
2022/08/03 09:40:41;;;;;;;;;;;;;;;29.05;40.97;95300.97;5097188;28;966;-50
2022/08/03 09:43:08;;;;;;;;;;;;;;;28.99;39.88;95302.91;5092419;28;2027;-48
2022/08/03 09:45:38;;;;;;;;;;;;;;;29.07;40.90;95301.53;5076562;28;1032;-51
2022/08/03 09:48:20;;;;;;;;;;;;;;;29.09;41.89;95304.84;5076176;28;1080;-48
2022/08/03 09:50:50;;;;;;;;;;;;;;;29.05;40.81;95295.47;5076352;28;1981;-48
2022/08/03 09:53:16;;;;;;;;;;;;;;;28.96;41.95;95289.69;5076049;28;1248;-49
2022/08/03 09:55:51;;;;;;;;;;;;;;;29.01;39.87;95295.19;5076258;28;1080;-49
2022/08/03 09:58:19;;;;;;;;;;;;;;;29.20;42.39;95288.06;5076169;28;1069;-49
2022/08/03 10:00:52;;;;;;;;;;;;;;;29.30;40.84;95278.97;5076200;28;1028;-49
2022/08/03 10:03:18;;;;;;;;;;;;;;;29.35;40.46;95289.19;5076026;28;954;-53
2022/08/03 10:05:44;;;;;;;;;;;;;;;29.33;42.02;95278.44;5076397;28;1089;-49
2022/08/03 10:08:14;;;;;;;;;;;;;;;28.99;42.83;95278.97;5076188;28;1057;-49
2022/08/03 10:10:41;;;;;;;;;;;;;;;28.93;41.71;95279.22;5076258;28;1987;-49
2022/08/03 10:13:07;;;;;;;;;;;;;;;28.81;42.19;95262.97;5075787;28;1048;-50
2022/08/03 10:15:33;;;;;;;;;;;;;;;28.92;41.25;95270.13;5076151;28;1024;-49
2022/08/03 10:17:59;;;;;;;;;;;;;;;29.12;41.58;95272.09;5075467;28;1053;-50
2022/08/03 10:20:26;;;;;;;;;;;;;;;29.15;40.66;95267.97;5075754;28;1009;-49
2022/08/03 10:22:53;;;;;;;;;;;;;;;29.20;40.27;95266.03;5076358;28;1138;-50
2022/08/03 10:25:19;;;;;;;;;;;;;;;29.26;40.50;95266.88;5075594;28;1080;-50
2022/08/03 10:27:46;;;;;;;;;;;;;;;29.41;42.12;95265.22;5075885;28;981;-49
2022/08/03 10:30:13;;;;;;;;;;;;;;;29.51;39.95;95262.44;5075340;28;1910;-48
2022/08/03 10:32:42;;;;;;;;;;;;;;;29.54;39.34;95256.38;5075595;28;898;-49
2022/08/03 10:35:12;;;;;;;;;;;;;;;29.56;40.76;95265.19;5075651;28;942;-50
2022/08/03 10:37:48;;;;;;;;;;;;;;;29.58;39.02;95262.97;5075758;28;953;-49
2022/08/03 10:40:18;;;;;;;;;;;;;;;29.55;38.78;95256.06;5075321;28;1092;-49
2022/08/03 10:42:45;;;;;;;;;;;;;;;29.63;40.17;95248.34;5076388;28;1158;-49
2022/08/03 10:45:13;;;;;;;;;;;;;;;29.65;38.98;95246.97;5095401;28;1155;-49
2022/08/03 10:47:40;;;;;;;;;;;;;;;29.75;40.25;95240.66;5095668;28;1261;-49
2022/08/03 10:50:06;;;;;;;;;;;;;;;29.79;39.79;95238.97;5095235;28;1906;-49
2022/08/03 10:52:32;;;;;;;;;;;;;;;29.78;39.92;95235.41;5095410;28;1830;-49
2022/08/03 10:57:53;;;;;;;;;;;;;;;29.78;38.94;95229.91;5095425;28;1043;-49
2022/08/03 11:00:20;;;;;;;;;;;;;;;29.87;40.40;95235.63;5095406;28;954;-48
2022/08/03 11:03:02;;;;;;;;;;;;;;;29.80;40.37;95226.84;5095310;28;1028;-49
2022/08/03 11:05:29;;;;;;;;;;;;;;;29.09;38.85;95236.84;5095384;28;1044;-48
2022/08/03 11:08:13;;;;;;;;;;;;;;;28.75;40.98;95225.56;5095653;28;982;-48
2022/08/03 11:10:39;;;;;;;;;;;;;;;28.51;41.83;95217.78;5095379;28;1902;-49
2022/08/03 11:13:06;;;;;;;;;;;;;;;28.58;40.66;95218.38;5095879;28;1087;-49
2022/08/03 11:15:33;;;;;;;;;;;;;;;29.01;39.34;95221.72;5095443;28;1078;-49
2022/08/03 11:18:06;;;;;;;;;;;;;;;29.39;39.65;95226.94;5095195;28;1013;-49
2022/08/03 11:20:52;;;;;;;;;;;;;;;29.63;39.70;95212.53;5095028;28;1003;-49
2022/08/03 11:23:37;;;;;;;;;;;;;;;29.71;39.53;95212.78;5077588;28;957;-49
2022/08/03 11:26:13;;;;;;;;;;;;;;;29.70;37.65;95213.88;5095327;28;1057;-49
2022/08/03 11:28:40;;;;;;;;;;;;;;;29.84;38.70;95211.41;5094345;28;1910;-49
2022/08/03 11:31:21;;;;;;;;;;;;;;;29.84;39.54;95205.06;5094764;28;930;-49
2022/08/03 11:34:03;;;;;;;;;;;;;;;29.88;38.55;95212.50;5095131;28;1228;-49
2022/08/03 11:36:29;;;;;;;;;;;;;;;29.93;36.10;95198.66;5094908;28;953;-49
2022/08/03 11:39:14;;;;;;;;;;;;;;;29.97;37.61;95190.66;5095081;28;970;-49
2022/08/03 11:41:40;;;;;;;;;;;;;;;30.02;38.30;95179.63;5094454;28;1088;-49
2022/08/03 11:44:06;;;;;;;;;;;;;;;29.93;38.87;95178.56;5082556;28;1165;-49
2022/08/03 11:46:38;;;;;;;;;;;;;;;29.92;37.08;95176.94;5074355;28;1094;-49
2022/08/03 11:49:06;;;;;;;;;;;;;;;30.01;39.60;95171.63;5074370;28;1992;-49
2022/08/03 11:51:32;;;;;;;;;;;;;;;29.97;38.55;95179.63;5074245;28;1259;-49
2022/08/03 11:53:59;;;;;;;;;;;;;;;29.95;39.13;95176.34;5074566;28;961;-49
2022/08/03 11:56:26;;;;;;;;;;;;;;;29.81;35.86;95165.13;5074112;28;1080;-49
2022/08/03 11:58:54;;;;;;;;;;;;;;;29.88;37.63;95165.63;5074422;28;1029;-49
2022/08/03 12:01:21;;;;;;;;;;;;;;;29.92;37.65;95165.91;5074289;28;1505;-49
2022/08/03 12:03:47;;;;;;;;;;;;;;;30.06;35.54;95169.66;5074625;28;981;-49
2022/08/03 12:06:15;;;;;;;;;;;;;;;30.12;37.63;95168.53;5073993;28;1067;-49
2022/08/03 12:08:41;;;;;;;;;;;;;;;30.17;38.40;95159.41;5074211;28;2005;-49
2022/08/03 12:11:09;;;;;;;;;;;;;;;30.15;37.99;95167.16;5074533;28;948;-49
2022/08/03 12:13:36;;;;;;;;;;;;;;;30.00;38.30;95157.03;5074441;28;1028;-49
2022/08/03 12:16:03;;;;;;;;;;;;;;;29.67;38.18;95164.88;5073838;28;1037;-49
2022/08/03 12:18:29;;;;;;;;;;;;;;;29.42;38.02;95162.19;5074047;28;958;-49
2022/08/03 12:21:02;;;;;;;;;;;;;;;29.16;39.83;95151.28;5073789;28;1131;-48
2022/08/03 12:23:28;;;;;;;;;;;;;;;29.29;37.84;95155.34;5074002;28;1061;-48
2022/08/03 12:26:00;;;;;;;;;;;;;;;29.47;37.92;95153.94;5074107;28;956;-48
2022/08/03 12:28:26;;;;;;;;;;;;;;;29.67;37.92;95153.84;5074087;28;975;-48
2022/08/03 12:30:52;;;;;;;;;;;;;;;29.76;36.75;95149.41;5073672;28;1993;-48
2022/08/03 12:33:19;;;;;;;;;;;;;;;29.83;37.90;95151.06;5073994;28;1030;-49
2022/08/03 12:35:46;;;;;;;;;;;;;;;29.58;37.83;95159.13;5073850;28;962;-49
2022/08/03 12:38:12;;;;;;;;;;;;;;;29.43;38.20;95153.66;5073895;28;973;-49
2022/08/03 12:40:40;;;;;;;;;;;;;;;29.49;37.65;95154.47;5073433;28;1013;-49
2022/08/03 12:43:11;;;;;;;;;;;;;;;29.72;37.43;95147.50;5077791;28;1190;-49
2022/08/03 12:45:37;;;;;;;;;;;;;;;29.86;36.71;95142.22;5093973;28;988;-49
2022/08/03 12:48:07;;;;;;;;;;;;;;;30.01;34.55;95139.38;5094193;28;1025;-49
2022/08/03 12:50:34;;;;;;;;;;;;;;;30.16;35.62;95138.47;5094014;28;1909;-49
2022/08/03 12:56:56;;;;;;;;;;;;;;;30.23;32.59;95144.47;5093556;28;721;-49
2022/08/03 12:59:24;;;;;;;;;;;;;;;30.00;37.21;95139.69;5093661;28;1056;-49
2022/08/03 13:01:51;;;;;;;;;;;;;;;29.77;37.57;95131.78;5093292;28;1087;-49
2022/08/03 13:04:25;;;;;;;;;;;;;;;29.62;37.83;95134.59;5093504;28;1016;-48
2022/08/03 13:07:02;;;;;;;;;;;;;;;29.52;38.57;95131.84;5093451;28;1013;-49
2022/08/03 13:09:31;;;;;;;;;;;;;;;29.65;37.27;95131.25;5093333;28;1914;-49
2022/08/03 13:12:04;;;;;;;;;;;;;;;29.86;36.97;95126.53;5093343;28;1055;-49
2022/08/03 13:14:30;;;;;;;;;;;;;;;29.94;36.50;95131.44;5093821;28;1051;-49
2022/08/03 13:16:56;;;;;;;;;;;;;;;30.04;37.53;95138.81;5093526;28;977;-49
2022/08/03 13:19:22;;;;;;;;;;;;;;;30.05;36.31;95129.44;5093530;28;1122;-49